Time;durP1;ratioP1;P1;durP2;ratioP2;P2;SDS_P1;SDS_P2;PMS_P1;PMS_P2;Temp;Humidity;BMP_temperature;BMP_pressure;BME280_temperature;BME280_humidity;BME280_pressure;Samples;Min_cycle;Max_cycle;Signal;HPM_P1;HPM_P2
2022/08/04 00:00:04;;;;;;;;;1.75;1.75;;;;;23.83;58.36;101300.09;5007674;28;8951;-65
2022/08/04 00:02:55;;;;;;;;;1.25;1.25;;;;;23.85;58.16;101300.66;5027670;28;8838;-65
2022/08/04 00:05:34;;;;;;;;;4.00;4.00;;;;;23.85;57.98;101300.66;5030410;28;8830;-66
2022/08/04 00:08:21;;;;;;;;;1.75;1.00;;;;;23.85;57.80;101301.47;5027953;28;8948;-65
2022/08/04 00:10:52;;;;;;;;;1.75;1.75;;;;;23.86;57.76;101297.66;5034074;28;8823;-65
2022/08/04 00:13:23;;;;;;;;;1.75;1.75;;;;;23.85;57.89;101298.72;5023888;28;8840;-64
2022/08/04 00:15:57;;;;;;;;;2.00;2.00;;;;;23.81;57.90;101299.53;5034584;28;8830;-65
2022/08/04 00:18:33;;;;;;;;;2.50;2.50;;;;;23.79;58.20;101293.50;5029867;28;8822;-65
2022/08/04 00:21:04;;;;;;;;;1.00;1.00;;;;;23.77;58.29;101284.69;5047457;28;8949;-65
2022/08/04 00:23:33;;;;;;;;;2.00;2.00;;;;;23.74;58.22;101291.56;5049923;28;8823;-65
2022/08/04 00:26:20;;;;;;;;;1.75;1.75;;;;;23.73;58.33;101291.81;5011707;28;8840;-65
2022/08/04 00:28:47;;;;;;;;;2.50;2.00;;;;;23.73;58.21;101278.91;5025823;28;8958;-66
2022/08/04 00:31:15;;;;;;;;;2.00;2.00;;;;;23.72;58.39;101277.25;5030205;28;8976;-66
2022/08/04 00:33:45;;;;;;;;;1.75;1.00;;;;;23.73;58.30;101273.41;5029916;28;8945;-67
2022/08/04 00:36:12;;;;;;;;;1.50;1.50;;;;;23.73;58.24;101275.34;5049051;28;8832;-66
2022/08/04 00:38:43;;;;;;;;;2.00;1.25;;;;;23.73;58.31;101272.59;5049361;28;8849;-66
2022/08/04 00:41:29;;;;;;;;;1.50;1.25;;;;;23.74;58.17;101268.72;5028859;28;8875;-66
2022/08/04 00:44:05;;;;;;;;;2.00;2.00;;;;;23.73;58.18;101267.09;5037546;28;8920;-66
2022/08/04 00:46:42;;;;;;;;;1.75;1.75;;;;;23.73;58.04;101276.16;5033230;28;8838;-66
2022/08/04 00:49:18;;;;;;;;;1.50;1.50;;;;;23.72;57.97;101273.69;5034500;28;8826;-66
2022/08/04 00:52:00;;;;;;;;;1.50;1.50;;;;;23.73;57.99;101269.84;5053158;28;8812;-66
2022/08/04 00:55:02;;;;;;;;;1.00;1.00;;;;;23.73;57.87;101264.34;5045437;28;8943;-66
2022/08/04 00:57:54;;;;;;;;;2.75;1.00;;;;;23.73;57.98;101278.91;5027948;28;8872;-66
2022/08/04 01:00:21;;;;;;;;;4.25;2.00;;;;;23.72;58.06;101270.94;5033428;28;8826;-66
2022/08/04 01:03:21;;;;;;;;;2.00;2.00;;;;;23.69;58.06;101267.63;5033139;28;8841;-66
2022/08/04 01:06:06;;;;;;;;;1.50;1.50;;;;;23.69;58.08;101272.28;5048759;28;8890;-66
2022/08/04 01:09:02;;;;;;;;;1.25;1.25;;;;;23.66;58.38;101264.63;5024754;28;8814;-66
2022/08/04 01:12:08;;;;;;;;;1.75;1.75;;;;;23.66;58.28;101270.13;5027656;28;8842;-65
2022/08/04 01:14:43;;;;;;;;;1.50;1.50;;;;;23.66;58.30;101262.69;5029807;28;8958;-66
2022/08/04 01:17:41;;;;;;;;;1.00;1.00;;;;;23.68;58.43;101265.16;5032131;28;9596;-66
2022/08/04 01:20:10;;;;;;;;;1.00;1.00;;;;;23.68;58.43;101262.41;5042969;28;8823;-66
2022/08/04 01:23:03;;;;;;;;;2.00;2.00;;;;;23.69;58.51;101261.31;5052722;28;8897;-66
2022/08/04 01:26:01;;;;;;;;;1.00;1.00;;;;;23.68;58.56;101260.47;5040019;28;8905;-66
2022/08/04 01:28:43;;;;;;;;;2.25;2.25;;;;;23.69;58.49;101255.81;5052231;28;8847;-66
2022/08/04 01:31:36;;;;;;;;;4.00;3.00;;;;;23.66;58.79;101251.69;5033366;28;8822;-66
2022/08/04 01:34:05;;;;;;;;;2.00;2.00;;;;;23.64;58.79;101242.84;5034165;28;8845;-66
2022/08/04 01:36:34;;;;;;;;;1.75;1.50;;;;;23.61;58.99;101243.38;5027427;28;8852;-65
2022/08/04 01:39:39;;;;;;;;;2.00;2.00;;;;;23.59;59.07;101244.78;5032934;28;9545;-67
2022/08/04 01:41:55;;;;;;;;;2.00;1.75;;;;;23.58;59.07;101243.94;5050954;28;8846;-66
2022/08/04 01:44:27;;;;;;;;;1.50;1.50;;;;;23.59;59.06;101242.03;5047526;28;8826;-66
2022/08/04 01:46:54;;;;;;;;;4.00;3.25;;;;;23.58;59.31;101237.63;5030922;28;8838;-66
2022/08/04 01:49:23;;;;;;;;;1.75;1.00;;;;;23.56;59.31;101243.38;5031175;28;8892;-66
2022/08/04 01:51:53;;;;;;;;;1.00;1.00;;;;;23.57;59.39;101239.53;5032134;28;8892;-66
2022/08/04 01:54:20;;;;;;;;;1.25;1.25;;;;;23.57;59.38;101238.72;5032378;28;8826;-66
2022/08/04 01:56:49;;;;;;;;;1.00;1.00;;;;;23.54;59.38;101240.09;5031568;28;8849;-66
2022/08/04 01:59:18;;;;;;;;;1.50;1.25;;;;;23.52;59.49;101245.03;5031904;28;8822;-66
2022/08/04 02:01:44;;;;;;;;;1.75;1.75;;;;;23.48;59.71;101234.84;5030877;28;8948;-66
2022/08/04 02:04:16;;;;;;;;;0.50;0.50;;;;;23.48;59.89;101224.69;5025115;28;8912;-66
2022/08/04 02:06:59;;;;;;;;;1.75;1.00;;;;;23.50;59.92;101230.75;5033585;28;9526;-66
2022/08/04 02:09:37;;;;;;;;;2.75;2.75;;;;;23.51;59.67;101224.13;5036565;28;8820;-67
2022/08/04 02:12:51;;;;;;;;;0.25;0.25;;;;;23.51;59.72;101226.88;5051735;28;9519;-66
2022/08/04 02:15:45;;;;;;;;;1.25;1.00;;;;;23.51;59.87;101220.56;5039365;28;8834;-66
2022/08/04 02:18:23;;;;;;;;;1.00;0.00;;;;;23.48;59.77;101219.19;5024406;28;8833;-66
2022/08/04 02:20:57;;;;;;;;;3.25;1.50;;;;;23.45;60.11;101214.22;5024307;28;9556;-66
2022/08/04 02:23:40;;;;;;;;;2.00;2.00;;;;;23.43;60.11;101210.94;5031667;28;8810;-66
2022/08/04 02:26:18;;;;;;;;;3.00;2.00;;;;;23.42;60.21;101217.53;5049847;28;9542;-67
2022/08/04 02:29:03;;;;;;;;;1.00;1.00;;;;;23.40;60.32;101220.53;5050865;28;8811;-66
2022/08/04 02:31:32;;;;;;;;;1.25;1.25;;;;;23.37;60.47;101215.56;5040004;28;8833;-66
2022/08/04 02:34:03;;;;;;;;;2.25;2.00;;;;;23.36;60.36;101211.19;5031311;28;8848;-66
2022/08/04 02:36:35;;;;;;;;;1.25;1.25;;;;;23.34;60.37;101205.16;5031299;28;8908;-66
2022/08/04 02:39:05;;;;;;;;;2.75;2.00;;;;;23.31;60.45;101197.44;5032721;28;8834;-66
2022/08/04 02:41:32;;;;;;;;;2.00;2.00;;;;;23.31;60.58;101207.59;5051126;28;8831;-66
2022/08/04 02:44:02;;;;;;;;;2.75;2.75;;;;;23.29;60.36;101215.28;5049696;28;8819;-65
2022/08/04 02:46:30;;;;;;;;;1.50;1.00;;;;;23.22;60.72;101215.56;5030493;28;8826;-65
2022/08/04 02:48:57;;;;;;;;;2.50;2.50;;;;;23.22;61.01;101217.47;5020904;28;8895;-66
2022/08/04 02:51:29;;;;;;;;;1.50;1.50;;;;;23.23;60.89;101213.63;5030956;28;8838;-65
2022/08/04 02:53:58;;;;;;;;;1.00;1.00;;;;;23.22;60.97;101214.72;5031412;28;8852;-66
2022/08/04 02:56:29;;;;;;;;;2.00;2.00;;;;;23.22;61.02;101217.47;5050556;28;8937;-66
2022/08/04 02:59:06;;;;;;;;;2.50;1.50;;;;;23.20;61.10;101207.56;5034867;28;8900;-66
2022/08/04 03:01:33;;;;;;;;;2.00;2.00;;;;;23.19;61.27;101208.66;5040551;28;8822;-66
2022/08/04 03:04:03;;;;;;;;;2.00;2.00;;;;;23.16;61.31;101198.22;5033460;28;8846;-66
2022/08/04 03:07:07;;;;;;;;;3.50;3.50;;;;;23.13;61.36;101198.78;5050343;28;8851;-66
2022/08/04 03:09:50;;;;;;;;;1.00;1.00;;;;;23.10;61.58;101196.56;5043491;28;8903;-66
2022/08/04 03:12:51;;;;;;;;;2.50;2.50;;;;;23.08;61.52;101201.47;5030821;28;8846;-66
2022/08/04 03:16:12;;;;;;;;;1.50;1.50;;;;;23.05;61.71;101195.69;5039719;28;8828;-66
2022/08/04 03:18:47;;;;;;;;;3.75;2.50;;;;;23.02;61.88;101201.75;5023406;28;8924;-66
2022/08/04 03:21:23;;;;;;;;;2.25;2.25;;;;;23.00;61.85;101204.75;5010905;28;8832;-66
2022/08/04 03:24:27;;;;;;;;;2.50;2.25;;;;;22.95;62.00;101200.06;5011039;28;9531;-65
2022/08/04 03:27:27;;;;;;;;;4.00;3.00;;;;;22.92;62.35;101202.50;5010400;28;8852;-66
2022/08/04 03:30:03;;;;;;;;;2.00;2.00;;;;;22.88;62.24;101199.44;5045548;28;8810;-66
2022/08/04 03:32:51;;;;;;;;;2.25;1.00;;;;;22.84;62.46;101201.06;5030460;28;8826;-66
2022/08/04 03:35:57;;;;;;;;;2.00;2.00;;;;;22.84;62.46;101203.81;5041923;28;8843;-66
2022/08/04 03:39:00;;;;;;;;;2.25;2.25;;;;;22.82;62.64;101202.44;5010541;28;8821;-66
2022/08/04 03:41:54;;;;;;;;;2.50;2.50;;;;;22.78;62.83;101201.34;5009945;28;8853;-66
2022/08/04 03:45:03;;;;;;;;;3.75;2.75;;;;;22.76;62.78;101200.75;5029505;28;8849;-66
2022/08/04 03:48:06;;;;;;;;;2.00;2.00;;;;;22.76;62.84;101196.09;5021820;28;9529;-66
2022/08/04 03:50:41;;;;;;;;;2.00;2.00;;;;;22.75;62.97;101191.69;5030369;28;8911;-65
2022/08/04 03:53:18;;;;;;;;;2.00;2.00;;;;;22.74;62.98;101191.97;5029906;28;8822;-66
2022/08/04 03:56:26;;;;;;;;;1.50;1.50;;;;;22.74;63.12;101194.72;5028881;28;8865;-66
2022/08/04 03:59:16;;;;;;;;;2.50;2.50;;;;;22.70;63.02;101187.03;5010904;28;8898;-66
2022/08/04 04:02:09;;;;;;;;;2.75;1.50;;;;;22.70;63.27;101197.19;5036720;28;8834;-66
2022/08/04 04:05:09;;;;;;;;;2.00;2.00;;;;;22.68;63.44;101191.94;5030821;28;9561;-65
2022/08/04 04:08:00;;;;;;;;;2.00;2.00;;;;;22.68;63.50;101199.34;5049826;28;8839;-65
2022/08/04 04:10:38;;;;;;;;;2.00;2.00;;;;;22.66;63.43;101185.91;5036209;28;8846;-65
2022/08/04 04:13:36;;;;;;;;;5.25;4.50;;;;;22.66;63.52;101182.34;5030002;28;8892;-66
2022/08/04 04:16:24;;;;;;;;;1.00;1.00;;;;;22.65;63.48;101188.91;5027761;28;8830;-66
2022/08/04 04:19:13;;;;;;;;;4.25;2.00;;;;;22.63;63.61;101191.91;5033368;28;8842;-66
2022/08/04 04:22:01;;;;;;;;;2.00;2.00;;;;;22.61;63.60;101190.53;5014250;28;8833;-66
2022/08/04 04:24:53;;;;;;;;;4.75;4.50;;;;;22.60;63.71;101181.47;5021514;28;8897;-65
2022/08/04 04:27:56;;;;;;;;;1.25;1.00;;;;;22.59;63.52;101181.75;5032908;28;8861;-66
2022/08/04 04:31:10;;;;;;;;;2.00;2.00;;;;;22.58;63.60;101182.84;5037367;28;8826;-66
2022/08/04 04:33:58;;;;;;;;;1.25;1.25;;;;;22.58;63.66;101180.09;5033559;28;8858;-66
2022/08/04 04:36:48;;;;;;;;;3.00;2.00;;;;;22.58;63.56;101180.91;5013684;28;8844;-66
2022/08/04 04:39:43;;;;;;;;;2.00;2.00;;;;;22.58;63.77;101186.41;5020910;28;8820;-66
2022/08/04 04:42:24;;;;;;;;;3.00;3.00;;;;;22.60;63.77;101184.22;5049616;28;8827;-66
2022/08/04 04:45:22;;;;;;;;;3.50;2.25;;;;;22.59;63.71;101187.22;5025204;28;8830;-66
2022/08/04 04:48:02;;;;;;;;;3.00;3.00;;;;;22.59;63.65;101192.72;5054909;23;8938;-64
2022/08/04 04:51:04;;;;;;;;;1.75;1.75;;;;;22.60;63.68;101188.88;5045840;28;8829;-65
2022/08/04 04:54:19;;;;;;;;;4.00;3.00;;;;;22.60;63.51;101192.44;5014153;28;8839;-64
2022/08/04 04:56:57;;;;;;;;;2.25;2.25;;;;;22.61;63.56;101196.03;5012894;28;8915;-64
2022/08/04 04:59:27;;;;;;;;;2.00;2.00;;;;;22.63;63.01;101193.84;5023514;28;8822;-64
2022/08/04 05:02:21;;;;;;;;;1.00;1.00;;;;;22.63;63.01;101189.16;5033406;28;8798;-64
2022/08/04 05:05:05;;;;;;;;;1.00;1.00;;;;;22.65;62.89;101200.72;5033535;28;8830;-65
2022/08/04 05:08:02;;;;;;;;;2.00;2.00;;;;;22.67;62.68;101193.03;5033056;28;8818;-65
2022/08/04 05:11:07;;;;;;;;;2.00;2.00;;;;;22.69;62.38;101196.34;5032006;28;8878;-63
2022/08/04 05:14:07;;;;;;;;;1.00;1.00;;;;;22.69;62.50;101196.34;5026961;28;9601;-64
2022/08/04 05:17:02;;;;;;;;;3.75;2.25;;;;;22.71;62.63;101194.16;5029459;28;8830;-64
2022/08/04 05:19:54;;;;;;;;;2.00;1.75;;;;;22.73;62.48;101199.41;5032519;28;8834;-65
2022/08/04 05:22:31;;;;;;;;;3.50;2.00;;;;;22.74;62.53;101200.22;5033555;28;8830;-66
2022/08/04 05:25:03;;;;;;;;;0.75;0.75;;;;;22.77;62.52;101207.88;5031562;28;8915;-64
2022/08/04 05:27:56;;;;;;;;;1.50;1.50;;;;;22.79;62.58;101214.78;5032359;28;8873;-65
2022/08/04 05:30:26;;;;;;;;;2.00;2.00;;;;;22.80;62.70;101210.09;5031528;28;8818;-67
2022/08/04 05:32:59;;;;;;;;;2.00;1.50;;;;;22.79;62.76;101211.22;5023458;28;9630;-67
2022/08/04 05:35:43;;;;;;;;;1.75;1.75;;;;;22.79;62.82;101216.69;5032497;28;8834;-65
2022/08/04 05:38:34;;;;;;;;;2.25;2.25;;;;;22.78;62.84;101212.31;5032775;28;8900;-65
2022/08/04 05:41:02;;;;;;;;;1.25;1.25;;;;;22.78;62.86;101212.31;5031634;28;8916;-65
2022/08/04 05:43:29;;;;;;;;;2.00;2.00;;;;;22.80;62.89;101210.09;5022648;28;8830;-65
2022/08/04 05:45:58;;;;;;;;;1.25;1.25;;;;;22.78;62.96;101210.38;5031198;28;8832;-65
2022/08/04 05:48:26;;;;;;;;;0.50;0.50;;;;;22.79;62.90;101205.72;5025508;28;8849;-65
2022/08/04 05:50:54;;;;;;;;;2.25;1.50;;;;;22.81;63.07;101211.75;5029265;28;9536;-66
2022/08/04 05:53:27;;;;;;;;;1.50;1.50;;;;;22.82;63.06;101207.94;5031964;28;8876;-65
2022/08/04 05:55:55;;;;;;;;;3.00;1.00;;;;;22.79;63.30;101203.81;5031739;28;8956;-65
2022/08/04 05:58:28;;;;;;;;;2.00;1.75;;;;;22.78;63.37;101201.34;5032673;28;9623;-64
2022/08/04 06:00:57;;;;;;;;;1.25;1.25;;;;;22.79;63.42;101198.31;5030408;28;9585;-65
2022/08/04 06:03:25;;;;;;;;;1.75;1.25;;;;;22.81;63.48;101201.63;5029336;28;8833;-65
2022/08/04 06:05:53;;;;;;;;;1.00;1.00;;;;;22.83;63.42;101204.09;5025744;28;8849;-65
2022/08/04 06:08:20;;;;;;;;;0.00;0.00;;;;;22.84;63.54;101212.06;5031659;28;8861;-66
2022/08/04 06:10:48;;;;;;;;;1.25;1.25;;;;;22.85;63.39;101205.50;5032120;28;8833;-66
2022/08/04 06:13:19;;;;;;;;;1.00;1.00;;;;;22.86;63.48;101220.84;5032246;28;9513;-66
2022/08/04 06:16:08;;;;;;;;;1.00;1.00;;;;;22.88;63.53;101215.09;5032198;28;8826;-66
2022/08/04 06:18:56;;;;;;;;;1.25;1.25;;;;;22.88;63.54;101215.09;5031636;28;8854;-66
2022/08/04 06:21:47;;;;;;;;;3.75;2.50;;;;;22.87;63.86;101221.69;5032161;28;8806;-65
2022/08/04 06:24:20;;;;;;;;;1.00;1.00;;;;;22.86;63.81;101228.28;5030373;28;8968;-66
2022/08/04 06:26:50;;;;;;;;;2.00;2.00;;;;;22.86;64.02;101225.53;5024149;28;8814;-64
2022/08/04 06:29:39;;;;;;;;;1.25;1.25;;;;;22.87;64.00;101222.50;5042866;28;8874;-64
2022/08/04 06:32:23;;;;;;;;;1.75;1.75;;;;;22.87;64.11;101217.00;5023864;28;8822;-65
2022/08/04 06:35:01;;;;;;;;;1.50;1.00;;;;;22.88;64.07;101223.31;5032041;28;8910;-65
2022/08/04 06:37:28;;;;;;;;;0.75;0.75;;;;;22.89;64.29;101225.00;5031987;28;8819;-67
2022/08/04 06:40:12;;;;;;;;;1.00;1.00;;;;;22.90;64.15;101224.75;5032747;28;9512;-65
2022/08/04 06:42:58;;;;;;;;;1.50;1.25;;;;;22.90;64.22;101232.13;5032200;28;8846;-66
2022/08/04 06:45:25;;;;;;;;;2.00;2.00;;;;;22.91;64.16;101223.66;5032448;28;8917;-65
2022/08/04 06:47:54;;;;;;;;;1.00;1.00;;;;;22.93;64.22;101226.97;5044973;28;9610;-67
2022/08/04 06:50:22;;;;;;;;;1.25;1.25;;;;;22.94;63.93;101225.06;5032258;28;8822;-65
2022/08/04 06:53:08;;;;;;;;;1.00;1.00;;;;;22.97;63.92;101231.91;5032656;28;8834;-66
2022/08/04 06:55:36;;;;;;;;;2.00;2.00;;;;;22.95;63.95;101241.25;5032263;28;8923;-65
2022/08/04 06:58:05;;;;;;;;;2.50;1.75;;;;;22.93;64.00;101240.69;5032204;28;8826;-65
2022/08/04 07:00:33;;;;;;;;;3.00;2.00;;;;;22.91;63.75;101237.38;5030258;28;8846;-65
2022/08/04 07:03:01;;;;;;;;;2.50;1.50;;;;;22.92;63.97;101238.19;5031661;28;8872;-65
2022/08/04 07:05:28;;;;;;;;;1.00;1.00;;;;;22.93;63.89;101246.19;5032380;28;8968;-65
2022/08/04 07:07:55;;;;;;;;;2.00;2.00;;;;;22.90;63.82;101241.22;5031970;28;8846;-64
2022/08/04 07:10:26;;;;;;;;;1.25;1.00;;;;;22.90;63.75;101234.88;5031929;28;8924;-65
2022/08/04 07:12:55;;;;;;;;;2.00;2.00;;;;;22.91;63.70;101234.63;5032408;28;8843;-65
2022/08/04 07:15:22;;;;;;;;;2.50;2.00;;;;;22.93;63.81;101235.22;5031328;28;8941;-66
2022/08/04 07:17:50;;;;;;;;;3.00;3.00;;;;;22.97;63.91;101237.41;5031389;28;8957;-64
2022/08/04 07:20:18;;;;;;;;;1.50;1.50;;;;;23.02;63.99;101246.50;5030870;28;9595;-67
2022/08/04 07:23:04;;;;;;;;;3.00;2.75;;;;;23.06;63.55;101241.31;5023562;28;8900;-68
2022/08/04 07:25:33;;;;;;;;;4.25;3.00;;;;;23.08;63.44;101242.66;5022711;28;8810;-67
2022/08/04 07:28:22;;;;;;;;;3.25;3.00;;;;;23.08;63.38;101248.16;5026213;28;8866;-67
2022/08/04 07:30:49;;;;;;;;;2.50;2.00;;;;;23.09;63.49;101249.84;5028459;28;9513;-68
2022/08/04 07:33:17;;;;;;;;;2.25;1.50;;;;;23.16;63.32;101260.56;5028853;28;8849;-66
2022/08/04 07:35:49;;;;;;;;;5.25;4.50;;;;;23.17;63.03;101252.06;5029481;28;8834;-66
2022/08/04 07:38:36;;;;;;;;;1.75;1.00;;;;;23.19;62.83;101255.34;5029654;28;8928;-66
2022/08/04 07:41:24;;;;;;;;;3.00;3.00;;;;;23.23;62.86;101258.41;5029297;28;8838;-68
2022/08/04 07:44:07;;;;;;;;;1.75;1.50;;;;;23.29;62.58;101259.22;5029181;28;8819;-68
2022/08/04 07:46:35;;;;;;;;;1.50;1.50;;;;;23.31;62.21;101254.31;5029457;28;8904;-66
2022/08/04 07:49:02;;;;;;;;;1.25;1.25;;;;;23.32;61.93;101261.44;5027407;28;8830;-66
2022/08/04 07:51:29;;;;;;;;;1.75;1.75;;;;;23.28;61.08;101260.34;5021527;28;8814;-66
2022/08/04 07:53:57;;;;;;;;;1.25;1.00;;;;;23.33;60.93;101268.59;5027534;28;9533;-67
2022/08/04 07:56:25;;;;;;;;;2.25;2.25;;;;;23.37;60.54;101265.03;5028051;28;8846;-67
2022/08/04 07:58:51;;;;;;;;;1.50;1.50;;;;;23.44;60.09;101275.78;5027272;28;8844;-66
2022/08/04 08:01:18;;;;;;;;;3.50;2.25;;;;;23.49;60.00;101275.78;5029313;28;8911;-67
2022/08/04 08:03:46;;;;;;;;;7.25;6.25;;;;;23.53;59.40;101282.38;5026406;28;8931;-66
2022/08/04 08:06:13;;;;;;;;;1.25;1.25;;;;;23.56;58.94;101265.38;5026515;28;8824;-66
2022/08/04 08:08:59;;;;;;;;;3.00;1.00;;;;;23.58;58.43;101270.63;5028927;28;8846;-67
2022/08/04 08:11:37;;;;;;;;;2.00;2.00;;;;;23.59;58.35;101270.34;5042170;28;8861;-67
2022/08/04 08:14:25;;;;;;;;;1.25;1.25;;;;;23.60;57.59;101271.16;5028884;28;8830;-67
2022/08/04 08:16:52;;;;;;;;;5.25;2.00;;;;;23.60;57.32;101269.22;5025410;28;8823;-68
2022/08/04 08:19:19;;;;;;;;;2.25;1.00;;;;;23.63;56.97;101271.44;5026587;28;8846;-67
2022/08/04 08:21:49;;;;;;;;;2.25;1.75;;;;;23.68;57.45;101268.72;5029325;28;8877;-67
2022/08/04 08:24:25;;;;;;;;;2.75;2.75;;;;;23.75;57.22;101273.16;5035194;28;8850;-67
2022/08/04 08:26:52;;;;;;;;;5.25;3.50;;;;;23.80;56.92;101279.47;5034912;28;8853;-67
2022/08/04 08:29:19;;;;;;;;;2.00;2.00;;;;;23.85;56.89;101270.41;5035242;28;8868;-67
2022/08/04 08:31:45;;;;;;;;;2.75;2.75;;;;;23.90;56.39;101275.91;5031730;28;8838;-66
2022/08/04 08:34:27;;;;;;;;;3.50;3.25;;;;;23.98;56.29;101280.03;5026535;28;8826;-67
2022/08/04 08:37:03;;;;;;;;;2.00;2.00;;;;;24.03;55.78;101274.56;5022658;28;8829;-67
2022/08/04 08:39:40;;;;;;;;;4.25;4.00;;;;;24.05;55.03;101272.34;5033979;28;8857;-66
2022/08/04 08:42:18;;;;;;;;;4.00;4.00;;;;;24.09;54.17;101276.22;5045591;28;8869;-67
2022/08/04 08:45:11;;;;;;;;;3.00;3.00;;;;;24.12;53.53;101273.75;5028517;28;8838;-67
2022/08/04 08:48:07;;;;;;;;;4.00;3.00;;;;;24.15;53.50;101280.63;5025051;28;8830;-67
2022/08/04 08:50:48;;;;;;;;;4.00;2.25;;;;;24.14;52.93;101277.03;5026993;28;8826;-67
2022/08/04 08:53:52;;;;;;;;;2.00;2.00;;;;;24.18;52.92;101278.16;5027162;28;8839;-67
2022/08/04 08:56:30;;;;;;;;;3.25;2.00;;;;;24.25;52.50;101288.03;5028078;28;8884;-67
2022/08/04 08:59:15;;;;;;;;;1.00;1.00;;;;;24.32;52.09;101281.16;5025710;28;9525;-66
2022/08/04 09:02:02;;;;;;;;;2.00;2.00;;;;;24.39;51.81;101280.94;5020696;28;8837;-66
2022/08/04 09:04:32;;;;;;;;;2.00;2.00;;;;;24.48;51.73;101283.94;5026335;28;8861;-66
2022/08/04 09:07:19;;;;;;;;;3.00;3.00;;;;;24.57;51.40;101280.34;5026532;28;8840;-66
2022/08/04 09:10:16;;;;;;;;;2.00;2.00;;;;;24.67;51.59;101287.75;5026882;28;8927;-66
2022/08/04 09:12:56;;;;;;;;;2.00;2.00;;;;;24.76;51.32;101280.59;5024197;28;8841;-65
2022/08/04 09:15:58;;;;;;;;;2.00;1.75;;;;;24.81;50.76;101286.09;5025641;28;8841;-66
2022/08/04 09:18:45;;;;;;;;;1.25;1.25;;;;;24.89;49.53;101293.78;5021389;28;8846;-65
2022/08/04 09:21:27;;;;;;;;;3.00;3.00;;;;;24.90;49.03;101298.19;5026448;28;8857;-66
2022/08/04 09:24:21;;;;;;;;;1.75;1.00;;;;;24.92;49.10;101292.41;5026502;28;8845;-66
2022/08/04 09:27:08;;;;;;;;;2.00;2.00;;;;;24.90;49.03;101297.34;5025146;28;8968;-66
2022/08/04 09:29:42;;;;;;;;;2.75;2.00;;;;;24.88;49.38;101289.38;5026516;28;8858;-67
2022/08/04 09:32:26;;;;;;;;;2.00;2.00;;;;;24.87;49.04;101290.50;5023781;28;8958;-67
2022/08/04 09:35:04;;;;;;;;;2.00;2.00;;;;;24.88;49.55;101299.59;5030031;28;8826;-66
2022/08/04 09:37:40;;;;;;;;;2.50;1.50;;;;;24.95;49.28;101297.34;5044517;28;8837;-66
2022/08/04 09:40:31;;;;;;;;;1.25;1.25;;;;;24.98;49.55;101295.97;5030683;28;9534;-66
2022/08/04 09:43:21;;;;;;;;;3.75;2.25;;;;;25.00;49.04;101302.84;5030048;28;8885;-66
2022/08/04 09:46:09;;;;;;;;;3.00;3.00;;;;;24.96;48.67;101306.44;5025737;28;8846;-66
2022/08/04 09:48:57;;;;;;;;;2.00;1.75;;;;;24.90;48.84;101302.88;5028303;28;8872;-66
2022/08/04 09:51:55;;;;;;;;;1.00;1.00;;;;;24.88;49.27;101310.59;5032735;28;8867;-66
2022/08/04 09:54:49;;;;;;;;;2.00;1.00;;;;;24.82;48.58;101312.50;5029542;28;8905;-67
2022/08/04 09:57:35;;;;;;;;;2.25;1.50;;;;;24.82;49.38;101314.44;5031923;28;8938;-66
2022/08/04 10:00:12;;;;;;;;;2.00;2.00;;;;;24.82;49.45;101320.78;5029853;28;8867;-66
2022/08/04 10:02:43;;;;;;;;;1.00;1.00;;;;;24.77;49.58;101331.81;5030697;28;8852;-65
2022/08/04 10:05:20;;;;;;;;;1.00;1.00;;;;;24.77;49.75;101334.56;5025101;28;8971;-67
2022/08/04 10:08:24;;;;;;;;;1.75;1.75;;;;;24.74;49.40;101339.78;5025414;28;8846;-67
2022/08/04 10:11:13;;;;;;;;;1.00;0.00;;;;;24.75;49.30;101338.69;5044055;28;9583;-67
2022/08/04 10:14:04;;;;;;;;;1.00;1.00;;;;;24.77;49.10;101331.00;5019335;28;8848;-67
2022/08/04 10:16:57;;;;;;;;;1.00;1.00;;;;;24.76;49.00;101332.91;5019935;28;8866;-67
2022/08/04 10:19:31;;;;;;;;;1.00;1.00;;;;;24.80;49.27;101335.94;5019431;28;8984;-67
2022/08/04 10:22:13;;;;;;;;;1.00;1.00;;;;;24.82;48.93;101344.75;5030296;28;8907;-68
2022/08/04 10:25:21;;;;;;;;;1.25;1.00;;;;;24.77;48.41;101342.00;5024821;28;9540;-67
2022/08/04 10:28:15;;;;;;;;;1.75;1.75;;;;;24.76;48.59;101343.13;5020768;28;8832;-68
2022/08/04 10:30:48;;;;;;;;;3.00;2.00;;;;;24.72;48.52;101350.28;5023290;28;9786;-67
2022/08/04 10:33:37;;;;;;;;;0.00;0.00;;;;;24.76;48.79;101343.13;5023890;28;11017;-67
2022/08/04 10:36:09;;;;;;;;;4.00;2.75;;;;;24.73;48.55;101347.22;5023848;28;9652;-67
2022/08/04 10:38:55;;;;;;;;;0.75;0.25;;;;;24.75;48.28;101339.50;5021263;28;8942;-67
2022/08/04 10:41:36;;;;;;;;;1.50;1.50;;;;;24.76;48.29;101345.88;5021365;28;9579;-67
2022/08/04 10:44:13;;;;;;;;;1.00;1.00;;;;;24.76;48.38;101343.94;5024174;28;8957;-66
2022/08/04 10:46:48;;;;;;;;;0.00;0.00;;;;;24.78;48.78;101349.16;5022222;28;8834;-67
2022/08/04 10:49:36;;;;;;;;;1.00;1.00;;;;;24.79;48.45;101354.38;5025146;28;8931;-67
2022/08/04 10:52:29;;;;;;;;;1.00;1.00;;;;;24.79;48.40;101368.13;5032193;28;8903;-67
2022/08/04 10:55:05;;;;;;;;;1.25;1.25;;;;;24.72;48.00;101378.63;5020975;28;8968;-67
2022/08/04 10:57:43;;;;;;;;;0.25;0.25;;;;;24.72;48.04;101375.06;5022746;28;8838;-67
2022/08/04 11:00:18;;;;;;;;;1.00;1.00;;;;;24.70;47.65;101371.72;5022616;28;8848;-67
2022/08/04 11:02:50;;;;;;;;;0.00;0.00;;;;;24.71;47.45;101370.63;5020988;28;8834;-67
2022/08/04 11:05:26;;;;;;;;;0.00;0.00;;;;;24.74;47.15;101375.59;5024875;28;8830;-66
2022/08/04 11:07:59;;;;;;;;;2.25;1.00;;;;;24.84;47.08;101367.34;5021519;28;8828;-66
2022/08/04 11:10:31;;;;;;;;;1.00;1.00;;;;;24.91;46.85;101376.13;5021760;28;8833;-66
2022/08/04 11:13:05;;;;;;;;;1.00;1.00;;;;;24.97;46.83;101382.47;5021395;28;8855;-66
2022/08/04 11:15:40;;;;;;;;;0.25;0.25;;;;;25.05;46.74;101381.91;5021798;28;9517;-66
2022/08/04 11:18:17;;;;;;;;;0.50;0.50;;;;;25.10;46.60;101384.66;5021302;28;8825;-66
2022/08/04 11:21:00;;;;;;;;;0.25;0.25;;;;;25.19;46.18;101388.50;5020992;28;8930;-66
2022/08/04 11:23:33;;;;;;;;;3.25;2.00;;;;;25.22;46.34;101381.63;5019700;28;9639;-67
2022/08/04 11:26:18;;;;;;;;;1.00;1.00;;;;;25.27;46.47;101389.84;5020442;28;8830;-67
2022/08/04 11:28:47;;;;;;;;;2.00;2.00;;;;;25.35;45.97;101387.34;5020127;28;8968;-66
2022/08/04 11:31:38;;;;;;;;;2.00;2.00;;;;;25.41;45.48;101390.94;5023222;28;8842;-66
2022/08/04 11:34:18;;;;;;;;;2.25;2.25;;;;;25.47;45.72;101387.03;5023636;28;8826;-67
2022/08/04 11:36:51;;;;;;;;;2.00;2.00;;;;;25.52;45.86;101380.69;5020726;28;8836;-66
2022/08/04 11:39:27;;;;;;;;;2.00;2.00;;;;;25.61;45.86;101390.88;5021672;28;8933;-66
2022/08/04 11:42:05;;;;;;;;;1.50;1.50;;;;;25.69;45.37;101381.19;5022129;28;8830;-66
2022/08/04 11:44:47;;;;;;;;;1.00;1.00;;;;;25.74;45.71;101392.19;5021572;28;9006;-66
2022/08/04 11:47:37;;;;;;;;;1.00;1.00;;;;;25.82;45.98;101388.03;5022248;28;8850;-66
2022/08/04 11:50:07;;;;;;;;;2.25;0.50;;;;;25.91;46.30;101391.03;5021576;28;8900;-67
2022/08/04 11:52:38;;;;;;;;;1.00;1.00;;;;;25.89;45.94;101396.84;5021056;28;8826;-67
2022/08/04 11:55:10;;;;;;;;;1.50;1.50;;;;;25.87;44.84;101401.81;5018798;28;8849;-67
2022/08/04 11:57:37;;;;;;;;;1.00;1.00;;;;;25.80;45.23;101398.53;5018685;28;8822;-67
2022/08/04 12:00:11;;;;;;;;;1.00;1.00;;;;;25.81;44.81;101389.16;5036799;28;8964;-66
2022/08/04 12:02:59;;;;;;;;;1.50;0.50;;;;;25.82;45.06;101388.03;5024152;28;8850;-65
2022/08/04 12:05:31;;;;;;;;;0.75;0.75;;;;;25.89;45.92;101389.38;5023785;28;8833;-66
2022/08/04 12:08:25;;;;;;;;;1.00;1.00;;;;;25.94;45.61;101398.75;5024978;28;8969;-66
2022/08/04 12:11:31;;;;;;;;;1.00;1.00;;;;;26.01;44.99;101391.81;5025132;28;8896;-67
2022/08/04 12:14:13;;;;;;;;;1.50;1.50;;;;;26.07;44.83;101381.56;5020425;28;8890;-66
2022/08/04 12:17:03;;;;;;;;;1.25;1.25;;;;;26.20;44.85;101385.63;5035131;28;8955;-67
2022/08/04 12:19:47;;;;;;;;;1.75;1.75;;;;;26.26;44.03;101390.00;5019844;28;8858;-66
2022/08/04 12:22:35;;;;;;;;;1.00;1.00;;;;;26.24;43.50;101383.94;5023534;28;8917;-65
2022/08/04 12:25:13;;;;;;;;;1.00;1.00;;;;;26.19;43.83;101387.56;5021721;28;8833;-65
2022/08/04 12:27:52;;;;;;;;;1.00;1.00;;;;;26.13;44.06;101391.47;5021787;28;8881;-66
2022/08/04 12:30:19;;;;;;;;;0.75;0.75;;;;;26.17;44.33;101386.19;5019079;28;8931;-67
2022/08/04 12:33:22;;;;;;;;;1.00;1.00;;;;;26.28;44.20;101382.25;5018796;28;8936;-68
2022/08/04 12:36:16;;;;;;;;;2.25;2.25;;;;;26.32;43.84;101386.91;5023036;28;8983;-67